Time;durP1;ratioP1;P1;durP2;ratioP2;P2;SDS_P1;SDS_P2;PMS_P1;PMS_P2;Temp;Humidity;BMP_temperature;BMP_pressure;BME280_temperature;BME280_humidity;BME280_pressure;Samples;Min_cycle;Max_cycle;Signal;HPM_P1;HPM_P2
2023/01/27 00:00:05;;;;;;;6.03;3.25;;;;;;;2.63;74.70;98766.13;4942893;29;20217;-93
2023/01/27 00:02:31;;;;;;;4.70;2.72;;;;;;;2.83;74.79;98792.38;4924807;29;20040;-93
2023/01/27 00:04:56;;;;;;;6.60;3.35;;;;;;;2.53;74.82;98772.06;4917913;29;20043;-93
2023/01/27 00:07:22;;;;;;;7.35;4.13;;;;;;;2.41;75.47;98774.69;4927663;29;20046;-93
2023/01/27 00:09:49;;;;;;;5.60;3.03;;;;;;;2.53;76.19;98785.34;4926842;29;20031;-94
2023/01/27 00:15:06;;;;;;;5.65;2.97;;;;;;;2.54;75.46;98765.69;4945282;29;20070;-94
2023/01/27 00:17:33;;;;;;;4.97;3.25;;;;;;;2.36;75.86;98755.97;4926868;29;20406;-94
2023/01/27 00:20:00;;;;;;;4.60;2.97;;;;;;;2.27;76.86;98761.88;4943078;29;20138;-94
2023/01/27 00:25:09;;;;;;;5.10;2.67;;;;;;;2.65;75.67;98774.69;4932078;29;20089;-94
2023/01/27 00:27:34;;;;;;;4.00;2.72;;;;;;;2.55;75.41;98774.47;4926237;29;20039;-94
2023/01/27 00:30:03;;;;;;;4.45;2.58;;;;;;;2.31;76.19;98750.53;4911083;29;20394;-93
2023/01/27 00:35:15;;;;;;;3.47;2.03;;;;;;;2.34;76.01;98775.84;4959353;29;20050;-93
2023/01/27 00:37:42;;;;;;;2.85;2.00;;;;;;;2.37;75.76;98773.53;4926830;29;20499;-94
2023/01/27 00:40:09;;;;;;;4.00;2.60;;;;;;;2.33;76.02;98774.22;4938792;29;20126;-94
2023/01/27 00:42:34;;;;;;;3.95;2.80;;;;;;;2.46;75.12;98770.53;4891432;29;20043;-94
2023/01/27 00:47:44;;;;;;;4.72;2.65;;;;;;;2.51;75.40;98779.44;4913184;29;20066;-92
2023/01/27 00:50:09;;;;;;;3.33;2.35;;;;;;;2.34;76.12;98784.59;4898673;29;20055;-94
2023/01/27 00:52:35;;;;;;;4.80;3.20;;;;;;;2.38;76.34;98796.41;4909621;29;20038;-94
2023/01/27 00:55:03;;;;;;;6.75;3.15;;;;;;;2.19;76.50;98785.06;4926996;29;20086;-93
2023/01/27 00:57:29;;;;;;;5.47;2.60;;;;;;;2.34;75.36;98805.84;4926636;29;20494;-94
2023/01/27 00:59:55;;;;;;;2.53;1.77;;;;;;;2.46;74.82;98819.16;4927519;28;20035;-94
2023/01/27 01:02:21;;;;;;;3.92;2.70;;;;;;;2.35;75.59;98786.25;4944364;28;20042;-94
2023/01/27 01:04:46;;;;;;;3.00;1.80;;;;;;;2.43;75.34;98823.09;4942377;28;20490;-93
2023/01/27 01:07:12;;;;;;;2.60;1.75;;;;;;;2.43;75.24;98807.16;4944506;28;20035;-94
2023/01/27 01:09:37;;;;;;;2.58;1.88;;;;;;;2.28;77.07;98809.44;4945212;28;20042;-94
2023/01/27 01:12:04;;;;;;;2.40;1.73;;;;;;;2.28;76.20;98798.00;4944214;28;20141;-94
2023/01/27 01:14:30;;;;;;;1.98;1.60;;;;;;;2.26;75.83;98792.09;4957969;29;20614;-94
2023/01/27 01:16:56;;;;;;;3.97;2.17;;;;;;;2.41;75.83;98801.25;4958678;28;20074;-94
2023/01/27 01:19:22;;;;;;;3.72;2.13;;;;;;;2.17;76.94;98759.75;4930263;29;20043;-92
2023/01/27 01:21:48;;;;;;;7.18;4.38;;;;;;;2.21;76.87;98761.72;4925357;29;20066;-93
2023/01/27 01:24:14;;;;;;;6.72;4.13;;;;;;;2.32;76.66;98761.97;4929652;28;20069;-92
2023/01/27 01:26:40;;;;;;;7.25;3.90;;;;;;;2.29;76.10;98775.72;4944906;28;20070;-92
2023/01/27 01:29:06;;;;;;;6.43;3.50;;;;;;;2.17;76.13;98752.59;4935227;28;20043;-92
2023/01/27 01:31:33;;;;;;;6.60;3.70;;;;;;;2.31;75.92;98742.56;4943164;28;20125;-93
2023/01/27 01:33:58;;;;;;;4.30;2.75;;;;;;;2.26;76.33;98729.16;4944291;28;20034;-93
2023/01/27 01:36:26;;;;;;;4.50;2.80;;;;;;;2.46;75.68;98754.59;4945028;28;20089;-92
2023/01/27 01:38:54;;;;;;;4.95;3.60;;;;;;;2.31;76.49;98731.16;4944514;28;20057;-92
2023/01/27 01:41:20;;;;;;;4.22;2.67;;;;;;;2.20;76.69;98701.69;4940302;29;20434;-92
2023/01/27 01:43:47;;;;;;;4.28;2.63;;;;;;;2.22;76.09;98704.94;4939965;29;20043;-92
2023/01/27 01:46:13;;;;;;;5.28;2.90;;;;;;;2.33;75.95;98721.91;4931094;28;20093;-94
2023/01/27 01:48:55;;;;;;;4.38;2.47;;;;;;;2.56;75.14;98752.19;4958999;28;20496;-94
2023/01/27 01:51:26;;;;;;;3.10;2.13;;;;;;;2.54;75.63;98733.78;4959005;28;20053;-94
2023/01/27 01:53:59;;;;;;;4.05;2.47;;;;;;;2.43;75.76;98730.09;4960348;28;20501;-94
2023/01/27 01:56:29;;;;;;;4.07;2.80;;;;;;;2.34;75.99;98725.34;4975537;28;20035;-94
2023/01/27 01:58:55;;;;;;;2.85;1.52;;;;;;;2.57;74.27;98746.63;4959896;28;20038;-95
2023/01/27 02:01:21;;;;;;;3.58;1.58;;;;;;;2.41;74.96;98723.41;4975576;28;20078;-94
2023/01/27 02:03:49;;;;;;;2.58;1.73;;;;;;;2.51;75.22;98736.09;4975920;28;20113;-94
2023/01/27 02:06:15;;;;;;;3.42;1.95;;;;;;;2.50;75.36;98732.63;4959062;28;20481;-94
2023/01/27 02:08:42;;;;;;;3.42;1.98;;;;;;;2.50;75.47;98743.28;4960802;28;20089;-93
2023/01/27 02:11:08;;;;;;;3.45;2.20;;;;;;;2.42;75.17;98748.94;4960424;28;20039;-94
2023/01/27 02:13:33;;;;;;;4.05;2.20;;;;;;;2.27;75.69;98735.31;4943121;28;20042;-94
2023/01/27 02:16:01;;;;;;;3.08;2.22;;;;;;;2.19;76.50;98715.19;4959521;28;20513;-93
2023/01/27 02:18:27;;;;;;;3.25;2.15;;;;;;;2.22;76.82;98717.38;4960167;28;20057;-93
2023/01/27 02:20:54;;;;;;;2.65;1.92;;;;;;;2.33;76.93;98705.97;4956165;29;20027;-94
2023/01/27 02:23:22;;;;;;;3.38;2.22;;;;;;;2.42;75.76;98711.72;4955809;28;20038;-93
2023/01/27 02:25:50;;;;;;;2.88;2.00;;;;;;;2.44;75.19;98693.72;4972217;28;20031;-94
2023/01/27 02:28:16;;;;;;;2.78;1.98;;;;;;;2.43;75.78;98690.25;4972070;28;20058;-94
2023/01/27 02:30:42;;;;;;;4.82;2.35;;;;;;;2.20;76.28;98669.81;4955047;29;20015;-93
2023/01/27 02:33:36;;;;;;;4.22;2.60;;;;;;;2.52;76.37;98692.56;4955926;29;20054;-93
2023/01/27 02:36:10;;;;;;;3.00;2.33;;;;;;;2.51;75.28;98685.63;4944713;29;20039;-93
2023/01/27 02:39:02;;;;;;;3.15;1.80;;;;;;;2.58;74.22;98660.53;4935088;29;20561;-93
2023/01/27 02:41:38;;;;;;;3.90;2.38;;;;;;;2.54;74.77;98672.69;4903948;29;20036;-93
2023/01/27 02:44:05;;;;;;;3.13;2.22;;;;;;;2.39;74.27;98665.19;4919916;29;20115;-92
2023/01/27 02:46:30;;;;;;;3.63;2.15;;;;;;;2.21;73.67;98684.72;4920669;29;20039;-93
2023/01/27 02:48:56;;;;;;;3.65;2.05;;;;;;;2.51;73.84;98715.69;4904867;29;20039;-93
2023/01/27 02:51:23;;;;;;;2.63;1.77;;;;;;;2.47;74.09;98700.41;4925884;29;20048;-93
2023/01/27 02:53:49;;;;;;;5.20;2.63;;;;;;;2.41;74.92;98702.97;4903344;29;20071;-94
2023/01/27 02:56:14;;;;;;;2.15;1.52;;;;;;;2.31;75.45;98700.06;4904848;29;20038;-93
2023/01/27 02:58:40;;;;;;;2.15;1.52;;;;;;;2.46;74.70;98696.94;4889092;29;20482;-92
2023/01/27 03:01:05;;;;;;;2.53;1.60;;;;;;;2.36;74.36;98689.53;4897468;29;20077;-93
2023/01/27 03:03:31;;;;;;;2.67;1.90;;;;;;;2.38;75.26;98686.66;4922383;29;20031;-93
2023/01/27 03:05:56;;;;;;;2.30;1.65;;;;;;;2.33;75.15;98679.41;4923266;29;20039;-92
2023/01/27 03:08:24;;;;;;;3.33;1.92;;;;;;;2.50;74.69;98676.84;4924073;29;20046;-92
2023/01/27 03:10:52;;;;;;;1.92;1.52;;;;;;;2.67;74.86;98689.41;4924069;29;20035;-93
2023/01/27 03:13:24;;;;;;;2.30;1.70;;;;;;;2.50;75.28;98703.41;4956731;28;20130;-95
2023/01/27 03:18:36;;;;;;;2.33;1.80;;;;;;;2.62;74.01;98688.25;4945830;29;20473;-94
2023/01/27 03:21:03;;;;;;;2.33;1.60;;;;;;;2.72;73.85;98710.78;4959176;29;20039;-95
2023/01/27 03:23:28;;;;;;;3.80;1.95;;;;;;;2.72;74.05;98718.75;4912688;29;20118;-95
2023/01/27 03:25:55;;;;;;;5.10;2.83;;;;;;;2.53;74.39;98707.44;4928391;29;20042;-94
2023/01/27 03:28:21;;;;;;;3.30;2.28;;;;;;;2.45;75.30;98716.59;4928103;29;20490;-94
2023/01/27 03:30:46;;;;;;;3.30;2.08;;;;;;;2.55;75.44;98722.16;4928198;29;20030;-93
2023/01/27 03:33:13;;;;;;;4.82;2.70;;;;;;;2.49;75.88;98715.09;4928249;29;20058;-94
2023/01/27 03:35:46;;;;;;;4.78;3.15;;;;;;;2.47;75.15;98711.88;4943692;29;20564;-94
2023/01/27 03:46:29;;;;;;;5.47;2.92;;;;;;;2.72;74.25;98716.09;4946377;29;20066;-94
2023/01/27 03:48:55;;;;;;;4.72;3.25;;;;;;;2.52;74.71;98706.66;4943284;29;20047;-94
2023/01/27 03:51:22;;;;;;;5.35;3.25;;;;;;;2.37;75.29;98699.16;4942906;29;20039;-94
2023/01/27 03:53:48;;;;;;;6.43;3.20;;;;;;;2.41;75.38;98723.41;4943483;29;20082;-94
2023/01/27 03:56:14;;;;;;;4.88;3.00;;;;;;;2.49;75.61;98728.38;4917328;29;20035;-94
2023/01/27 03:58:40;;;;;;;5.90;3.80;;;;;;;2.48;76.03;98723.28;4926842;29;20066;-94
2023/01/27 04:01:13;;;;;;;8.80;3.70;;;;;;;2.37;76.08;98716.94;4911575;29;20042;-93
2023/01/27 04:09:12;;;;;;;5.85;3.72;;;;;;;2.25;76.27;98689.56;4945864;29;20098;-94
2023/01/27 04:14:29;;;;;;;4.28;3.08;;;;;;;2.21;77.73;98682.06;4944966;29;20041;-93
2023/01/27 04:16:59;;;;;;;4.47;2.65;;;;;;;2.07;76.84;98656.75;4934213;29;20099;-94
2023/01/27 04:19:25;;;;;;;7.70;4.25;;;;;;;2.06;76.53;98662.31;4928070;29;20177;-93
2023/01/27 04:21:52;;;;;;;6.78;3.47;;;;;;;2.37;76.58;98708.97;4927029;29;20031;-94
2023/01/27 04:24:24;;;;;;;7.93;3.67;;;;;;;2.14;77.20;98675.25;4960161;28;20061;-93
2023/01/27 04:26:53;;;;;;;;;;;;;;;2.36;76.87;98702.03;4947273;28;20058;-94
2023/01/27 04:29:20;;;;;;;4.90;2.10;;;;;;;2.15;76.20;98682.97;4975934;28;19916;-94
2023/01/27 04:31:46;;;;;;;4.82;2.92;;;;;;;2.07;77.12;98695.78;4931878;29;20517;-94
2023/01/27 04:34:11;;;;;;;3.53;2.40;;;;;;;2.17;77.08;98699.47;4958546;28;20031;-94
2023/01/27 04:36:41;;;;;;;3.63;2.55;;;;;;;2.27;76.49;98692.81;4926402;29;20035;-94
2023/01/27 04:39:07;;;;;;;4.28;2.55;;;;;;;2.46;76.32;98706.78;4959296;28;20042;-95
2023/01/27 04:41:37;;;;;;;3.67;2.65;;;;;;;2.72;75.30;98732.03;4943886;29;20031;-94
2023/01/27 04:44:05;;;;;;;4.35;2.63;;;;;;;2.73;74.38;98712.41;4944787;29;20031;-93
2023/01/27 04:46:31;;;;;;;5.65;2.63;;;;;;;2.56;75.40;98694.50;4960754;29;20031;-93
2023/01/27 04:48:58;;;;;;;4.03;2.85;;;;;;;2.72;74.56;98711.59;4960091;28;20421;-94
2023/01/27 04:51:24;;;;;;;6.22;3.60;;;;;;;2.86;73.69;98714.00;4957781;29;20043;-93
2023/01/27 04:53:51;;;;;;;4.72;3.40;;;;;;;2.59;74.51;98685.25;4927482;29;20112;-93
2023/01/27 04:56:20;;;;;;;5.20;3.85;;;;;;;2.63;75.35;98707.66;4953254;28;20584;-94
2023/01/27 04:58:46;;;;;;;5.10;3.65;;;;;;;2.58;74.93;98691.63;4978106;28;20412;-94
2023/01/27 05:01:11;;;;;;;5.65;2.92;;;;;;;2.63;74.21;98691.72;4939930;29;20036;-93
2023/01/27 05:03:38;;;;;;;4.57;3.45;;;;;;;2.70;74.09;98697.75;4932430;28;20069;-92
2023/01/27 05:06:03;;;;;;;5.50;3.00;;;;;;;2.77;75.18;98721.53;4942522;29;20035;-93
2023/01/27 05:08:29;;;;;;;5.03;3.33;;;;;;;2.64;74.02;98680.06;4944417;29;20024;-94
2023/01/27 05:10:55;;;;;;;2.97;2.35;;;;;;;2.81;72.93;98678.28;4942446;28;20383;-94
2023/01/27 05:13:21;;;;;;;3.85;2.42;;;;;;;2.80;72.66;98658.06;4943022;29;20498;-94
2023/01/27 05:15:47;;;;;;;13.18;5.95;;;;;;;2.89;72.37;98660.38;4942788;29;20031;-94
2023/01/27 05:18:14;;;;;;;7.78;5.18;;;;;;;2.84;72.75;98655.72;4943212;28;20525;-96
2023/01/27 05:20:40;;;;;;;7.15;3.83;;;;;;;2.86;72.55;98660.81;4958343;28;20178;-93
2023/01/27 05:25:50;;;;;;;3.63;2.83;;;;;;;2.78;72.09;98692.06;4973117;28;20110;-93
2023/01/27 05:28:16;;;;;;;3.00;2.10;;;;;;;2.86;71.08;98692.72;4959210;28;20056;-93
2023/01/27 05:30:42;;;;;;;3.63;2.97;;;;;;;2.87;70.34;98681.06;4955407;28;20042;-95
2023/01/27 05:33:09;;;;;;;4.57;3.25;;;;;;;3.01;70.83;98685.88;4979110;28;20027;-95
2023/01/27 05:35:41;;;;;;;3.65;2.85;;;;;;;3.09;70.44;98684.69;4975229;28;20051;-94
2023/01/27 05:38:07;;;;;;;4.50;2.78;;;;;;;2.99;70.18;98668.53;4915150;28;20103;-93
2023/01/27 05:40:32;;;;;;;3.42;2.25;;;;;;;2.73;69.18;98664.56;4944247;29;20043;-96
2023/01/27 05:42:59;;;;;;;4.57;3.08;;;;;;;2.89;70.14;98692.28;4932735;29;20406;-96
2023/01/27 05:45:28;;;;;;;5.82;3.10;;;;;;;2.86;70.67;98677.56;4951225;29;20039;-94
2023/01/27 05:47:53;;;;;;;8.57;6.13;;;;;;;2.90;71.32;98678.72;4959423;28;20062;-93
2023/01/27 05:50:19;;;;;;;6.82;4.60;;;;;;;2.89;71.28;98694.94;4978510;28;20046;-93
2023/01/27 05:52:59;;;;;;;5.95;3.38;;;;;;;2.61;73.55;98691.16;4948019;29;20454;-94
2023/01/27 05:58:27;;;;;;;4.75;3.47;;;;;;;2.93;70.97;98685.44;4964297;28;20078;-95
2023/01/27 06:00:53;;;;;;;4.72;2.75;;;;;;;2.91;70.63;98698.16;4946931;29;20443;-94
2023/01/27 06:03:18;;;;;;;4.00;2.88;;;;;;;2.99;71.20;98690.63;4925396;29;20134;-96
2023/01/27 06:05:54;;;;;;;3.95;2.67;;;;;;;3.09;71.44;98699.84;4925176;29;20036;-93
2023/01/27 06:08:21;;;;;;;9.13;6.70;;;;;;;3.17;70.66;98704.78;4923242;29;20043;-94
2023/01/27 06:10:50;;;;;;;7.70;4.40;;;;;;;3.16;70.15;98716.47;4924288;29;20028;-95
2023/01/27 06:13:17;;;;;;;4.90;3.25;;;;;;;3.04;70.09;98711.97;4925929;29;20035;-95
2023/01/27 06:15:48;;;;;;;5.28;3.90;;;;;;;3.26;68.28;98714.00;4921340;29;20423;-94
2023/01/27 06:18:14;;;;;;;7.50;5.30;;;;;;;3.30;69.95;98706.34;4938379;29;20039;-95
2023/01/27 06:20:40;;;;;;;4.82;2.97;;;;;;;3.28;68.16;98703.94;4936543;29;20046;-94
2023/01/27 06:23:09;;;;;;;5.60;3.08;;;;;;;3.36;68.94;98711.56;4930350;29;20051;-93
2023/01/27 06:25:39;;;;;;;8.77;6.03;;;;;;;3.33;70.12;98722.66;4926250;29;20054;-92
2023/01/27 06:28:05;;;;;;;7.55;4.57;;;;;;;3.31;68.78;98711.44;4925460;29;20482;-94
2023/01/27 06:30:32;;;;;;;4.38;3.05;;;;;;;3.49;66.90;98699.00;4926310;29;20055;-93
2023/01/27 06:33:05;;;;;;;4.68;3.55;;;;;;;3.68;67.61;98710.25;4927460;29;20119;-96
2023/01/27 06:35:31;;;;;;;4.85;3.00;;;;;;;3.65;66.37;98687.56;4917859;29;20095;-93
2023/01/27 06:37:59;;;;;;;5.70;2.60;;;;;;;3.52;67.96;98666.56;4940823;29;20108;-95
2023/01/27 06:40:25;;;;;;;4.55;3.35;;;;;;;3.44;67.24;98665.09;4932129;29;20074;-96
2023/01/27 06:42:51;;;;;;;5.90;4.15;;;;;;;3.49;67.76;98699.00;4929138;29;20035;-96
2023/01/27 06:45:22;;;;;;;5.50;3.60;;;;;;;3.44;68.22;98711.16;4928946;29;20043;-94
2023/01/27 06:48:00;;;;;;;7.33;4.53;;;;;;;3.60;68.95;98727.41;4927739;29;20039;-92
2023/01/27 06:50:35;;;;;;;5.82;4.05;;;;;;;3.48;69.26;98735.44;4923160;29;20039;-94
2023/01/27 07:00:56;;;;;;;5.05;3.55;;;;;;;3.41;68.90;98740.91;4914071;29;20060;-96
2023/01/27 07:04:16;;;;;;;6.30;4.13;;;;;;;3.38;67.69;98706.81;4983967;23;20069;-96
2023/01/27 07:06:42;;;;;;;5.47;3.90;;;;;;;3.37;67.81;98723.00;4977592;28;20150;-94
2023/01/27 07:09:07;;;;;;;14.98;7.88;;;;;;;3.44;68.25;98736.94;4966753;28;20049;-94
2023/01/27 07:11:33;;;;;;;5.97;4.40;;;;;;;3.59;68.63;98736.41;4981066;28;20038;-92
2023/01/27 07:13:58;;;;;;;5.63;3.38;;;;;;;3.66;66.30;98744.28;4947906;28;20042;-95
2023/01/27 07:16:24;;;;;;;7.15;4.45;;;;;;;3.46;67.23;98718.09;4952535;28;20038;-94
2023/01/27 07:18:50;;;;;;;7.40;4.20;;;;;;;3.60;66.62;98732.72;4952098;28;20041;-91
2023/01/27 07:21:15;;;;;;;6.28;3.75;;;;;;;3.66;68.20;98746.94;4948410;28;20054;-92
2023/01/27 07:23:41;;;;;;;7.95;4.47;;;;;;;3.61;68.96;98721.03;4943062;28;20050;-91
2023/01/27 07:26:17;;;;;;;7.53;4.50;;;;;;;3.77;69.34;98748.72;4949036;28;20022;-94
2023/01/27 07:28:45;;;;;;;6.82;4.35;;;;;;;3.72;68.81;98751.31;4945672;28;20045;-93
2023/01/27 07:31:10;;;;;;;7.20;4.00;;;;;;;3.53;69.55;98734.72;4946546;28;20026;-94
2023/01/27 07:33:36;;;;;;;7.57;5.28;;;;;;;3.80;68.38;98754.41;4959564;28;20049;-96
2023/01/27 07:36:02;;;;;;;7.07;5.03;;;;;;;3.67;68.62;98768.00;4949978;28;20034;-95
2023/01/27 07:38:30;;;;;;;8.18;6.18;;;;;;;3.37;68.67;98731.78;4942819;28;20100;-95
2023/01/27 07:40:57;;;;;;;9.15;5.63;;;;;;;3.58;68.44;98758.78;4944085;28;20088;-93
2023/01/27 07:43:23;;;;;;;13.65;7.10;;;;;;;3.45;70.00;98738.59;4945983;28;20038;-96
2023/01/27 07:45:56;;;;;;;7.97;5.03;;;;;;;3.48;67.98;98750.59;4962369;28;20034;-96
2023/01/27 07:48:26;;;;;;;7.30;5.17;;;;;;;3.38;67.50;98740.56;4947157;28;20035;-96
2023/01/27 07:50:51;;;;;;;8.57;5.65;;;;;;;3.52;67.89;98765.06;4948454;28;20100;-92
2023/01/27 07:53:19;;;;;;;9.82;5.95;;;;;;;3.44;68.84;98745.78;4951249;28;20050;-94
2023/01/27 07:55:44;;;;;;;12.85;7.88;;;;;;;3.33;69.53;98733.28;4950128;28;20626;-96
2023/01/27 07:58:15;;;;;;;13.77;7.65;;;;;;;3.32;70.20;98730.88;4949980;28;20037;-96
2023/01/27 08:00:43;;;;;;;14.05;7.90;;;;;;;3.26;70.10;98745.94;4954827;28;20539;-95
2023/01/27 08:03:20;;;;;;;10.13;7.13;;;;;;;3.19;69.21;98708.00;4956937;28;20042;-95
2023/01/27 08:05:46;;;;;;;18.05;7.32;;;;;;;3.43;68.68;98720.19;4971569;28;20511;-94
2023/01/27 08:08:12;;;;;;;9.95;6.30;;;;;;;3.28;69.10;98703.94;4934213;28;20049;-96
2023/01/27 08:10:37;;;;;;;8.80;5.40;;;;;;;3.27;69.84;98686.34;4951120;28;20543;-96
2023/01/27 08:16:10;;;;;;;15.32;10.13;;;;;;;3.40;69.18;98694.06;4974730;28;20030;-94
2023/01/27 08:18:51;;;;;;;8.38;5.82;;;;;;;3.41;69.46;98681.56;5006771;23;22332;-95
2023/01/27 08:21:17;;;;;;;9.20;6.50;;;;;;;3.72;68.68;98690.88;4964225;28;20439;-96
2023/01/27 08:24:11;;;;;;;10.48;5.65;;;;;;;3.73;70.13;98716.44;4959581;28;20101;-96
2023/01/27 08:26:37;;;;;;;7.57;5.05;;;;;;;3.55;69.39;98709.50;4989234;28;20042;-94
2023/01/27 08:29:23;;;;;;;6.63;4.72;;;;;;;3.20;68.48;98673.19;4968674;28;20046;-95
2023/01/27 08:36:10;;;;;;;8.35;5.28;;;;;;;3.69;67.30;98714.50;4973424;29;20131;-96
2023/01/27 08:38:38;;;;;;;6.10;3.97;;;;;;;3.59;67.76;98693.84;4960786;28;20034;-96
2023/01/27 08:45:14;;;;;;;12.50;5.93;;;;;;;3.28;68.09;98687.97;4967554;29;20441;-96
2023/01/27 08:47:54;;;;;;;6.95;4.13;;;;;;;3.38;67.25;98679.34;4934789;29;20035;-96
2023/01/27 08:55:42;;;;;;;19.92;10.30;;;;;;;3.42;68.45;98683.16;4987465;28;20061;-96
2023/01/27 08:58:10;;;;;;;47.17;17.88;;;;;;;3.53;68.19;98674.31;4948448;28;20071;-96
2023/01/27 09:00:36;;;;;;;22.85;10.23;;;;;;;3.44;67.92;98665.09;4945182;28;20034;-96
2023/01/27 09:03:04;;;;;;;9.35;5.53;;;;;;;3.73;68.36;98711.13;4943783;28;20049;-96
2023/01/27 09:05:29;;;;;;;22.45;16.55;;;;;;;3.73;68.08;98684.50;4954591;28;20039;-95
2023/01/27 09:07:58;;;;;;;10.65;5.28;;;;;;;3.71;66.04;98670.63;4933915;28;20042;-96
2023/01/27 09:10:26;;;;;;;7.80;4.07;;;;;;;3.81;65.78;98667.31;4931729;28;20054;-95
2023/01/27 09:12:51;;;;;;;9.57;6.50;;;;;;;3.81;66.66;98651.34;4934116;28;20034;-96
2023/01/27 09:15:17;;;;;;;9.77;6.95;;;;;;;3.81;67.98;98664.66;4945249;28;20023;-95
2023/01/27 09:17:43;;;;;;;8.80;5.95;;;;;;;3.97;67.40;98671.06;4942805;28;20490;-94
2023/01/27 09:20:19;;;;;;;10.27;7.53;;;;;;;3.99;67.96;98671.63;4937678;28;20039;-96
2023/01/27 09:23:03;;;;;;;12.93;6.95;;;;;;;3.97;68.78;98679.84;4920877;29;20043;-95
2023/01/27 09:34:13;;;;;;;16.42;9.45;;;;;;;3.37;69.47;98643.97;5229368;23;20510;-94
2023/01/27 09:36:50;;;;;;;11.05;6.47;;;;;;;3.55;69.52;98658.94;4925088;29;20058;-93
2023/01/27 09:39:21;;;;;;;8.55;5.53;;;;;;;3.78;69.56;98687.25;4887894;29;20052;-96
2023/01/27 09:42:05;;;;;;;7.90;5.15;;;;;;;3.83;68.59;98671.34;4889303;29;20115;-96
2023/01/27 09:44:50;;;;;;;8.85;5.50;;;;;;;3.86;69.78;98691.38;4921553;29;20076;-95
2023/01/27 09:47:32;;;;;;;9.10;5.47;;;;;;;3.86;68.90;98662.09;4909000;29;20126;-95
2023/01/27 09:50:16;;;;;;;8.88;5.55;;;;;;;3.93;68.14;98675.25;4905471;29;20438;-94
2023/01/27 09:53:13;;;;;;;15.18;9.63;;;;;;;3.93;67.63;98668.06;4921480;29;20462;-94
2023/01/27 09:55:53;;;;;;;10.35;8.13;;;;;;;3.92;69.58;98669.13;4903091;29;20040;-96
2023/01/27 09:58:30;;;;;;;9.60;5.88;;;;;;;4.06;68.56;98672.25;4921399;29;20040;-95
2023/01/27 10:01:20;;;;;;;7.63;5.03;;;;;;;3.91;67.48;98626.75;4922385;29;20040;-94
2023/01/27 10:04:01;;;;;;;10.05;6.07;;;;;;;4.20;67.41;98662.06;4904610;29;20107;-94
2023/01/27 10:07:03;;;;;;;12.07;7.82;;;;;;;3.98;68.61;98667.31;4903658;29;20087;-96
2023/01/27 10:09:52;;;;;;;10.82;5.78;;;;;;;3.93;68.03;98640.63;4920524;29;20040;-93
2023/01/27 10:12:45;;;;;;;13.13;7.53;;;;;;;3.76;67.09;98628.13;4919049;29;20124;-96
2023/01/27 10:15:46;;;;;;;10.80;7.05;;;;;;;4.00;68.12;98650.03;4937710;29;20047;-95
2023/01/27 10:18:42;;;;;;;8.98;7.25;;;;;;;3.85;69.55;98655.16;4938088;29;20074;-95
2023/01/27 10:24:14;;;;;;;7.88;5.18;;;;;;;3.58;69.24;98634.47;5028655;28;20057;-96
2023/01/27 10:51:27;;;;;;;9.27;6.10;;;;;;;3.72;69.99;98610.22;3219975;23;21687;31
2023/01/27 10:54:18;;;;;;;9.98;6.90;;;;;;;3.63;72.49;98591.16;4951824;29;20055;-93
2023/01/27 10:56:46;;;;;;;8.73;5.57;;;;;;;3.82;69.34;98589.06;4927297;29;20079;-95
2023/01/27 10:59:39;;;;;;;8.45;4.72;;;;;;;3.70;70.17;98575.03;4927639;29;20431;-95
2023/01/27 11:02:12;;;;;;;;;;;;;;;4.11;69.08;98605.75;4940262;29;20127;-92
2023/01/27 11:04:44;;;;;;;11.15;6.03;;;;;;;4.15;68.41;98598.03;4927230;29;19918;-94
2023/01/27 11:07:25;;;;;;;14.82;8.88;;;;;;;3.90;69.90;98590.50;4941195;29;20035;-94
2023/01/27 11:10:05;;;;;;;11.05;6.25;;;;;;;3.89;69.37;98576.38;4926080;29;20046;-95
2023/01/27 11:12:48;;;;;;;8.93;6.75;;;;;;;3.88;69.47;98563.31;4928929;29;20027;-96
2023/01/27 11:15:27;;;;;;;9.95;5.82;;;;;;;4.06;68.92;98581.69;4931272;29;20050;-95
2023/01/27 11:18:24;;;;;;;6.88;4.72;;;;;;;3.77;70.08;98549.84;4926592;29;20027;-96
2023/01/27 11:21:12;;;;;;;9.18;5.15;;;;;;;3.96;70.54;98560.22;4923160;29;20040;-95
2023/01/27 11:23:39;;;;;;;9.88;5.05;;;;;;;3.71;70.43;98536.72;4909500;29;20046;-95
2023/01/27 11:26:36;;;;;;;9.32;6.07;;;;;;;4.08;69.48;98578.78;5319959;23;20044;-93
2023/01/27 11:29:36;;;;;;;8.18;6.03;;;;;;;3.85;70.33;98557.41;4920894;29;20039;-95
2023/01/27 11:32:22;;;;;;;9.27;5.63;;;;;;;3.96;69.21;98579.66;4919041;29;20038;-96
2023/01/27 11:35:23;;;;;;;13.02;8.88;;;;;;;3.98;70.18;98576.75;4929845;29;20490;-96
2023/01/27 11:37:50;;;;;;;12.18;5.55;;;;;;;4.00;70.43;98580.78;4925512;28;20060;-96
2023/01/27 11:40:29;;;;;;;10.32;7.78;;;;;;;3.99;70.70;98544.56;4907377;29;20106;-96
2023/01/27 11:42:58;;;;;;;14.35;7.45;;;;;;;4.17;69.94;98545.31;4923077;29;20115;-93
2023/01/27 11:45:24;;;;;;;7.95;5.22;;;;;;;4.32;69.13;98561.50;4929374;29;20038;-96
2023/01/27 11:47:57;;;;;;;8.68;4.82;;;;;;;4.28;67.93;98555.06;4920643;29;20510;-96
2023/01/27 11:50:23;;;;;;;6.93;4.65;;;;;;;4.13;68.53;98553.03;4920807;29;20039;-96
2023/01/27 11:52:53;;;;;;;6.88;5.53;;;;;;;4.10;69.61;98558.03;4914831;29;20027;-93
2023/01/27 11:55:26;;;;;;;7.97;4.75;;;;;;;4.21;69.50;98568.59;4914674;29;20054;-93
2023/01/27 11:58:01;;;;;;;9.70;6.65;;;;;;;4.25;70.54;98566.22;4945827;29;20114;-92
2023/01/27 12:00:37;;;;;;;10.13;6.13;;;;;;;4.37;70.17;98556.22;4913343;29;20427;-92
2023/01/27 12:03:36;;;;;;;11.73;7.57;;;;;;;4.49;69.67;98552.66;4912809;29;20047;-92
2023/01/27 12:06:10;;;;;;;9.75;6.15;;;;;;;4.38;69.14;98544.53;4947033;29;20168;-95
2023/01/27 12:08:45;;;;;;;6.15;4.63;;;;;;;4.75;67.58;98577.72;4902407;29;20511;-92
2023/01/27 12:11:26;;;;;;;8.07;4.53;;;;;;;4.64;69.71;98584.81;4932844;29;20035;-91
2023/01/27 12:14:00;;;;;;;5.78;4.10;;;;;;;4.54;67.82;98560.69;4920630;29;20035;-93
2023/01/27 12:16:47;;;;;;;6.82;4.85;;;;;;;4.60;68.28;98560.50;4904233;29;20105;-92
2023/01/27 12:19:40;;;;;;;7.55;5.35;;;;;;;4.55;69.39;98552.47;4918017;29;20134;-92
2023/01/27 12:22:24;;;;;;;7.03;4.88;;;;;;;4.54;69.11;98550.84;4911229;29;20040;-96
2023/01/27 12:24:53;;;;;;;24.38;13.23;;;;;;;4.60;69.60;98559.69;4954985;29;20044;-95
2023/01/27 12:27:20;;;;;;;29.52;17.90;;;;;;;4.62;69.77;98568.25;4926653;29;20490;-95
2023/01/27 12:30:08;;;;;;;27.67;17.63;;;;;;;4.43;70.37;98552.56;4911639;29;20023;-94
2023/01/27 12:32:38;;;;;;;10.32;5.43;;;;;;;4.58;69.05;98561.81;4923161;29;20102;-96
2023/01/27 12:35:03;;;;;;;9.57;4.88;;;;;;;4.66;67.71;98567.50;4900423;29;20039;-95
2023/01/27 12:37:32;;;;;;;10.05;6.15;;;;;;;4.65;67.90;98568.56;4913060;29;20047;-94
2023/01/27 12:40:15;;;;;;;8.85;5.00;;;;;;;4.50;68.30;98565.72;4910979;29;20039;-95
2023/01/27 12:43:02;;;;;;;16.98;7.00;;;;;;;4.37;68.89;98552.78;4900011;29;20494;-93
2023/01/27 12:45:33;;;;;;;10.18;5.57;;;;;;;4.64;69.05;98582.94;4936957;29;20035;-96
2023/01/27 12:48:19;;;;;;;20.27;12.52;;;;;;;4.34;69.45;98553.28;4954314;29;20050;-96
2023/01/27 12:56:03;;;;;;;8.88;4.68;;;;;;;4.50;68.69;98568.38;4982172;28;20051;-94
2023/01/27 12:58:30;;;;;;;6.47;4.57;;;;;;;4.56;69.21;98582.59;4948240;28;20039;-95
2023/01/27 13:00:56;;;;;;;7.43;5.25;;;;;;;4.54;67.73;98560.69;4943976;28;20501;-95
2023/01/27 13:03:22;;;;;;;8.10;5.22;;;;;;;4.59;68.81;98572.22;4915527;29;20071;-93
2023/01/27 13:05:49;;;;;;;10.07;6.88;;;;;;;4.29;69.53;98559.31;4920229;28;20047;-94
2023/01/27 13:08:16;;;;;;;10.45;6.95;;;;;;;4.27;69.95;98568.63;4933379;28;20038;-96
2023/01/27 13:11:09;;;;;;;11.80;6.40;;;;;;;4.49;68.51;98574.78;4964518;28;20412;-95
2023/01/27 13:13:38;;;;;;;11.48;7.10;;;;;;;4.42;68.12;98558.16;4918146;29;20114;-95
2023/01/27 13:16:39;;;;;;;12.38;7.95;;;;;;;4.43;69.04;98567.78;4914299;29;20126;-94
2023/01/27 13:19:15;;;;;;;10.38;7.22;;;;;;;4.35;69.73;98584.19;4888963;29;20105;-94
2023/01/27 13:21:42;;;;;;;13.25;8.10;;;;;;;4.38;70.29;98570.34;4906363;29;20196;-93
2023/01/27 13:24:18;;;;;;;9.75;6.30;;;;;;;4.33;68.50;98560.44;4916878;29;20035;-95
2023/01/27 13:26:43;;;;;;;29.35;14.02;;;;;;;4.50;68.62;98559.59;4917423;29;20039;-95
2023/01/27 13:29:12;;;;;;;11.85;6.07;;;;;;;4.65;68.96;98587.22;4912699;29;20065;-94
2023/01/27 13:31:56;;;;;;;15.38;7.53;;;;;;;4.82;69.27;98583.69;4944316;29;20035;-94
2023/01/27 13:34:39;;;;;;;11.65;6.70;;;;;;;4.70;68.06;98577.69;4914072;29;20059;-94
2023/01/27 13:37:27;;;;;;;10.18;5.80;;;;;;;4.69;68.84;98590.22;4929721;29;20439;-93
2023/01/27 13:39:55;;;;;;;9.80;5.70;;;;;;;4.82;68.24;98589.03;4944955;29;20062;-96
2023/01/27 13:42:42;;;;;;;18.05;5.32;;;;;;;4.89;68.00;98596.81;4931465;29;20115;-94